sensor_id;sensor_type;location;lat;lon;timestamp;temperature;humidity
68378;DHT22;55322;48.146;11.516;2022-12-20T00:01:32;0.20;99.99
68378;DHT22;55322;48.146;11.516;2022-12-20T00:04:00;0.23;99.99
68378;DHT22;55322;48.146;11.516;2022-12-20T00:06:29;0.23;99.99
68378;DHT22;55322;48.146;11.516;2022-12-20T00:08:57;0.30;99.99
68378;DHT22;55322;48.146;11.516;2022-12-20T00:11:23;0.33;99.99
68378;DHT22;55322;48.146;11.516;2022-12-20T00:13:48;0.20;99.99
68378;DHT22;55322;48.146;11.516;2022-12-20T00:16:20;0.25;99.99
68378;DHT22;55322;48.146;11.516;2022-12-20T00:18:46;0.18;99.99
68378;DHT22;55322;48.146;11.516;2022-12-20T00:21:13;0.10;99.99
68378;DHT22;55322;48.146;11.516;2022-12-20T00:23:39;0.00;99.99
68378;DHT22;55322;48.146;11.516;2022-12-20T00:28:31;-0.01;99.99
68378;DHT22;55322;48.146;11.516;2022-12-20T00:30:56;-0.01;99.99
68378;DHT22;55322;48.146;11.516;2022-12-20T00:33:22;0.00;99.99
68378;DHT22;55322;48.146;11.516;2022-12-20T00:35:47;-0.01;99.99
68378;DHT22;55322;48.146;11.516;2022-12-20T00:38:12;-0.01;99.99
68378;DHT22;55322;48.146;11.516;2022-12-20T00:40:38;-0.06;99.99
68378;DHT22;55322;48.146;11.516;2022-12-20T00:43:03;-0.01;99.99
68378;DHT22;55322;48.146;11.516;2022-12-20T00:45:29;0.02;99.99
68378;DHT22;55322;48.146;11.516;2022-12-20T00:47:54;0.06;99.99
68378;DHT22;55322;48.146;11.516;2022-12-20T00:50:19;0.07;99.99
68378;DHT22;55322;48.146;11.516;2022-12-20T00:52:45;0.03;99.99
68378;DHT22;55322;48.146;11.516;2022-12-20T00:55:10;-0.04;99.99
68378;DHT22;55322;48.146;11.516;2022-12-20T00:57:35;-0.06;99.99
68378;DHT22;55322;48.146;11.516;2022-12-20T01:00:01;-0.03;99.99
68378;DHT22;55322;48.146;11.516;2022-12-20T01:02:26;-0.06;99.99
68378;DHT22;55322;48.146;11.516;2022-12-20T01:04:51;-0.04;99.99
68378;DHT22;55322;48.146;11.516;2022-12-20T01:07:17;-0.06;99.99
68378;DHT22;55322;48.146;11.516;2022-12-20T01:09:43;-0.04;99.99
68378;DHT22;55322;48.146;11.516;2022-12-20T01:12:09;-0.04;99.99
68378;DHT22;55322;48.146;11.516;2022-12-20T01:14:35;0.02;99.99
68378;DHT22;55322;48.146;11.516;2022-12-20T01:17:01;0.00;99.99
68378;DHT22;55322;48.146;11.516;2022-12-20T01:19:26;0.02;99.99
68378;DHT22;55322;48.146;11.516;2022-12-20T01:21:52;0.02;99.99
68378;DHT22;55322;48.146;11.516;2022-12-20T01:24:18;0.03;99.99
68378;DHT22;55322;48.146;11.516;2022-12-20T01:26:44;0.07;99.99
68378;DHT22;55322;48.146;11.516;2022-12-20T01:29:10;0.09;99.99
68378;DHT22;55322;48.146;11.516;2022-12-20T01:31:36;0.17;99.99
68378;DHT22;55322;48.146;11.516;2022-12-20T01:34:01;0.24;99.99
68378;DHT22;55322;48.146;11.516;2022-12-20T01:36:29;0.31;99.99
68378;DHT22;55322;48.146;11.516;2022-12-20T01:39:00;0.33;99.99
68378;DHT22;55322;48.146;11.516;2022-12-20T01:41:28;0.55;99.99
68378;DHT22;55322;48.146;11.516;2022-12-20T01:46:22;0.79;99.99
68378;DHT22;55322;48.146;11.516;2022-12-20T01:48:52;0.91;99.99
68378;DHT22;55322;48.146;11.516;2022-12-20T01:51:20;0.91;99.99
68378;DHT22;55322;48.146;11.516;2022-12-20T01:53:47;0.91;99.99
68378;DHT22;55322;48.146;11.516;2022-12-20T01:56:15;1.06;99.99
68378;DHT22;55322;48.146;11.516;2022-12-20T01:58:40;1.22;99.87
68378;DHT22;55322;48.146;11.516;2022-12-20T02:01:06;1.32;99.69
68378;DHT22;55322;48.146;11.516;2022-12-20T02:03:31;1.50;98.50
68378;DHT22;55322;48.146;11.516;2022-12-20T02:05:56;1.25;98.33
68378;DHT22;55322;48.146;11.516;2022-12-20T02:08:23;1.18;98.88
68378;DHT22;55322;48.146;11.516;2022-12-20T02:16:28;0.93;99.52
68378;DHT22;55322;48.146;11.516;2022-12-20T02:19:03;1.05;99.81
68378;DHT22;55322;48.146;11.516;2022-12-20T02:21:41;1.25;99.63
68378;DHT22;55322;48.146;11.516;2022-12-20T02:29:59;1.03;99.44
68378;DHT22;55322;48.146;11.516;2022-12-20T02:32:27;1.03;99.62
68378;DHT22;55322;48.146;11.516;2022-12-20T02:34:54;1.10;99.77
68378;DHT22;55322;48.146;11.516;2022-12-20T02:37:20;1.13;99.63
68378;DHT22;55322;48.146;11.516;2022-12-20T02:39:46;1.12;99.77
68378;DHT22;55322;48.146;11.516;2022-12-20T02:42:14;0.93;99.45
68378;DHT22;55322;48.146;11.516;2022-12-20T02:44:47;0.98;99.83
68378;DHT22;55322;48.146;11.516;2022-12-20T02:47:36;0.95;99.80
68378;DHT22;55322;48.146;11.516;2022-12-20T02:50:06;0.84;99.74
68378;DHT22;55322;48.146;11.516;2022-12-20T02:52:33;0.79;99.99
68378;DHT22;55322;48.146;11.516;2022-12-20T02:54:59;0.78;99.99
68378;DHT22;55322;48.146;11.516;2022-12-20T02:57:32;0.93;99.99
68378;DHT22;55322;48.146;11.516;2022-12-20T03:00:07;0.95;99.99
68378;DHT22;55322;48.146;11.516;2022-12-20T03:02:34;0.93;99.83
68378;DHT22;55322;48.146;11.516;2022-12-20T03:05:20;0.99;99.99
68378;DHT22;55322;48.146;11.516;2022-12-20T03:07:46;0.88;99.77
68378;DHT22;55322;48.146;11.516;2022-12-20T03:10:12;0.95;99.99
68378;DHT22;55322;48.146;11.516;2022-12-20T03:12:37;1.03;99.99
68378;DHT22;55322;48.146;11.516;2022-12-20T03:15:03;0.95;99.77
68378;DHT22;55322;48.146;11.516;2022-12-20T03:17:28;1.02;99.73
68378;DHT22;55322;48.146;11.516;2022-12-20T03:19:53;1.02;99.80
68378;DHT22;55322;48.146;11.516;2022-12-20T03:22:19;1.05;99.92
68378;DHT22;55322;48.146;11.516;2022-12-20T03:24:44;1.06;99.74
68378;DHT22;55322;48.146;11.516;2022-12-20T03:27:09;1.13;99.80
68378;DHT22;55322;48.146;11.516;2022-12-20T03:29:35;1.13;99.70
68378;DHT22;55322;48.146;11.516;2022-12-20T03:32:00;1.16;99.58
68378;DHT22;55322;48.146;11.516;2022-12-20T03:34:25;1.32;99.29
68378;DHT22;55322;48.146;11.516;2022-12-20T03:36:51;1.39;99.10
68378;DHT22;55322;48.146;11.516;2022-12-20T03:39:16;1.43;98.91
68378;DHT22;55322;48.146;11.516;2022-12-20T03:41:41;1.49;98.70
68378;DHT22;55322;48.146;11.516;2022-12-20T03:44:07;1.53;98.29
68378;DHT22;55322;48.146;11.516;2022-12-20T03:46:32;1.52;98.39
68378;DHT22;55322;48.146;11.516;2022-12-20T03:48:57;1.70;97.80
68378;DHT22;55322;48.146;11.516;2022-12-20T03:51:23;1.78;97.03
68378;DHT22;55322;48.146;11.516;2022-12-20T03:53:48;1.83;96.96
68378;DHT22;55322;48.146;11.516;2022-12-20T03:56:14;1.80;97.14
68378;DHT22;55322;48.146;11.516;2022-12-20T03:58:39;1.67;97.29
68378;DHT22;55322;48.146;11.516;2022-12-20T04:01:22;1.63;97.59
68378;DHT22;55322;48.146;11.516;2022-12-20T04:03:48;1.53;97.70
68378;DHT22;55322;48.146;11.516;2022-12-20T04:06:14;1.44;98.00
68378;DHT22;55322;48.146;11.516;2022-12-20T04:08:40;1.33;98.18
68378;DHT22;55322;48.146;11.516;2022-12-20T04:11:05;1.35;98.61
68378;DHT22;55322;48.146;11.516;2022-12-20T04:16:09;1.25;98.70
68378;DHT22;55322;48.146;11.516;2022-12-20T04:18:34;1.18;98.79
68378;DHT22;55322;48.146;11.516;2022-12-20T04:21:00;1.15;99.17
68378;DHT22;55322;48.146;11.516;2022-12-20T04:23:25;1.15;99.33
68378;DHT22;55322;48.146;11.516;2022-12-20T04:25:51;1.13;99.74
68378;DHT22;55322;48.146;11.516;2022-12-20T04:28:16;1.03;99.54
68378;DHT22;55322;48.146;11.516;2022-12-20T04:30:42;0.98;99.51
68378;DHT22;55322;48.146;11.516;2022-12-20T04:33:07;0.95;99.49
68378;DHT22;55322;48.146;11.516;2022-12-20T04:35:32;0.92;99.76
68378;DHT22;55322;48.146;11.516;2022-12-20T04:37:57;0.92;99.97
68378;DHT22;55322;48.146;11.516;2022-12-20T04:40:23;0.89;99.99
68378;DHT22;55322;48.146;11.516;2022-12-20T04:42:48;0.91;99.99
68378;DHT22;55322;48.146;11.516;2022-12-20T04:45:13;0.91;99.99
68378;DHT22;55322;48.146;11.516;2022-12-20T04:47:39;0.95;99.99
68378;DHT22;55322;48.146;11.516;2022-12-20T04:50:05;0.98;99.99
68378;DHT22;55322;48.146;11.516;2022-12-20T04:52:31;1.39;99.74
68378;DHT22;55322;48.146;11.516;2022-12-20T04:55:15;1.71;97.91
68378;DHT22;55322;48.146;11.516;2022-12-20T04:57:40;1.78;97.49
68378;DHT22;55322;48.146;11.516;2022-12-20T05:00:06;1.83;97.27
68378;DHT22;55322;48.146;11.516;2022-12-20T05:02:31;1.84;96.96
68378;DHT22;55322;48.146;11.516;2022-12-20T05:04:57;1.85;96.75
68378;DHT22;55322;48.146;11.516;2022-12-20T05:07:22;1.77;96.97
68378;DHT22;55322;48.146;11.516;2022-12-20T05:09:47;1.81;96.90
68378;DHT22;55322;48.146;11.516;2022-12-20T05:12:13;1.81;96.88
68378;DHT22;55322;48.146;11.516;2022-12-20T05:14:38;1.81;97.11
68378;DHT22;55322;48.146;11.516;2022-12-20T05:17:03;1.80;96.88
68378;DHT22;55322;48.146;11.516;2022-12-20T05:19:28;1.68;97.33
68378;DHT22;55322;48.146;11.516;2022-12-20T05:21:54;1.60;97.55
68378;DHT22;55322;48.146;11.516;2022-12-20T05:24:38;1.67;97.12
68378;DHT22;55322;48.146;11.516;2022-12-20T05:27:22;1.63;97.55
68378;DHT22;55322;48.146;11.516;2022-12-20T05:29:47;1.47;97.86
68378;DHT22;55322;48.146;11.516;2022-12-20T05:32:12;1.36;98.31
68378;DHT22;55322;48.146;11.516;2022-12-20T05:34:38;1.38;98.95
68378;DHT22;55322;48.146;11.516;2022-12-20T05:37:03;1.46;98.11
68378;DHT22;55322;48.146;11.516;2022-12-20T05:39:28;1.47;98.17
68378;DHT22;55322;48.146;11.516;2022-12-20T05:41:53;1.47;98.31
68378;DHT22;55322;48.146;11.516;2022-12-20T05:44:19;1.50;98.20
68378;DHT22;55322;48.146;11.516;2022-12-20T05:46:46;1.75;97.36
68378;DHT22;55322;48.146;11.516;2022-12-20T05:49:11;1.87;96.41
68378;DHT22;55322;48.146;11.516;2022-12-20T05:51:37;2.04;95.68
68378;DHT22;55322;48.146;11.516;2022-12-20T05:54:02;2.14;95.24
68378;DHT22;55322;48.146;11.516;2022-12-20T05:56:27;2.37;93.90
68378;DHT22;55322;48.146;11.516;2022-12-20T05:58:53;2.35;93.92
68378;DHT22;55322;48.146;11.516;2022-12-20T06:01:18;2.11;94.97
68378;DHT22;55322;48.146;11.516;2022-12-20T06:03:44;2.07;94.97
68378;DHT22;55322;48.146;11.516;2022-12-20T06:06:10;1.97;95.42
68378;DHT22;55322;48.146;11.516;2022-12-20T06:08:35;1.87;95.73
68378;DHT22;55322;48.146;11.516;2022-12-20T06:11:01;1.73;96.29
68378;DHT22;55322;48.146;11.516;2022-12-20T06:13:29;1.62;96.99
68378;DHT22;55322;48.146;11.516;2022-12-20T06:15:54;1.66;96.65
68378;DHT22;55322;48.146;11.516;2022-12-20T06:18:20;1.60;97.08
68378;DHT22;55322;48.146;11.516;2022-12-20T06:20:49;1.68;97.07
68378;DHT22;55322;48.146;11.516;2022-12-20T06:23:15;1.91;96.59
68378;DHT22;55322;48.146;11.516;2022-12-20T06:25:40;1.94;96.48
68378;DHT22;55322;48.146;11.516;2022-12-20T06:28:06;2.03;96.01
68378;DHT22;55322;48.146;11.516;2022-12-20T06:30:32;2.05;96.16
68378;DHT22;55322;48.146;11.516;2022-12-20T06:32:58;2.15;95.71
68378;DHT22;55322;48.146;11.516;2022-12-20T06:35:23;2.29;94.82
68378;DHT22;55322;48.146;11.516;2022-12-20T06:37:48;2.27;95.06
68378;DHT22;55322;48.146;11.516;2022-12-20T06:40:14;2.27;95.07
68378;DHT22;55322;48.146;11.516;2022-12-20T06:42:39;2.17;95.73
68378;DHT22;55322;48.146;11.516;2022-12-20T06:45:05;2.24;95.30
68378;DHT22;55322;48.146;11.516;2022-12-20T06:47:31;2.25;95.63
68378;DHT22;55322;48.146;11.516;2022-12-20T06:49:56;2.21;95.83
68378;DHT22;55322;48.146;11.516;2022-12-20T06:52:22;2.31;95.14
68378;DHT22;55322;48.146;11.516;2022-12-20T06:54:47;2.49;94.27
68378;DHT22;55322;48.146;11.516;2022-12-20T06:57:13;2.35;94.32
68378;DHT22;55322;48.146;11.516;2022-12-20T06:59:38;2.11;94.93
68378;DHT22;55322;48.146;11.516;2022-12-20T07:02:04;1.90;95.50
68378;DHT22;55322;48.146;11.516;2022-12-20T07:04:29;1.71;96.05
68378;DHT22;55322;48.146;11.516;2022-12-20T07:06:54;1.54;97.02
68378;DHT22;55322;48.146;11.516;2022-12-20T07:09:21;1.46;97.36
68378;DHT22;55322;48.146;11.516;2022-12-20T07:11:46;1.40;98.11
68378;DHT22;55322;48.146;11.516;2022-12-20T07:14:11;1.49;98.57
68378;DHT22;55322;48.146;11.516;2022-12-20T07:16:37;1.47;98.44
68378;DHT22;55322;48.146;11.516;2022-12-20T07:19:02;1.50;98.36
68378;DHT22;55322;48.146;11.516;2022-12-20T07:21:27;1.43;98.14
68378;DHT22;55322;48.146;11.516;2022-12-20T07:23:54;1.40;98.67
68378;DHT22;55322;48.146;11.516;2022-12-20T07:26:19;1.46;98.90
68378;DHT22;55322;48.146;11.516;2022-12-20T07:28:45;1.44;98.87
68378;DHT22;55322;48.146;11.516;2022-12-20T07:31:10;1.40;98.79
68378;DHT22;55322;48.146;11.516;2022-12-20T07:33:35;1.38;98.63
68378;DHT22;55322;48.146;11.516;2022-12-20T07:36:06;1.38;98.80
68378;DHT22;55322;48.146;11.516;2022-12-20T07:38:32;1.38;98.89
68378;DHT22;55322;48.146;11.516;2022-12-20T07:40:57;1.42;99.12
68378;DHT22;55322;48.146;11.516;2022-12-20T07:43:23;1.47;98.94
68378;DHT22;55322;48.146;11.516;2022-12-20T07:45:53;1.56;99.00
68378;DHT22;55322;48.146;11.516;2022-12-20T07:48:19;1.62;99.26
68378;DHT22;55322;48.146;11.516;2022-12-20T07:50:44;1.63;99.02
68378;DHT22;55322;48.146;11.516;2022-12-20T07:53:09;1.73;98.92
68378;DHT22;55322;48.146;11.516;2022-12-20T07:55:36;1.73;98.73
68378;DHT22;55322;48.146;11.516;2022-12-20T07:58:05;1.70;98.51
68378;DHT22;55322;48.146;11.516;2022-12-20T08:00:32;1.81;98.61
68378;DHT22;55322;48.146;11.516;2022-12-20T08:03:06;1.93;98.53
68378;DHT22;55322;48.146;11.516;2022-12-20T08:05:33;2.13;98.09
68378;DHT22;55322;48.146;11.516;2022-12-20T08:08:00;2.14;97.70
68378;DHT22;55322;48.146;11.516;2022-12-20T08:10:26;2.31;97.43
68378;DHT22;55322;48.146;11.516;2022-12-20T08:12:53;2.63;95.67
68378;DHT22;55322;48.146;11.516;2022-12-20T08:15:19;2.85;95.20
68378;DHT22;55322;48.146;11.516;2022-12-20T08:17:47;2.88;94.91
68378;DHT22;55322;48.146;11.516;2022-12-20T08:20:13;2.97;94.17
68378;DHT22;55322;48.146;11.516;2022-12-20T08:22:39;2.99;94.07
68378;DHT22;55322;48.146;11.516;2022-12-20T08:25:04;2.97;94.56
68378;DHT22;55322;48.146;11.516;2022-12-20T08:27:30;3.02;94.12
68378;DHT22;55322;48.146;11.516;2022-12-20T08:29:55;3.17;93.15
68378;DHT22;55322;48.146;11.516;2022-12-20T08:32:21;3.30;92.46
68378;DHT22;55322;48.146;11.516;2022-12-20T08:34:46;3.13;92.98
68378;DHT22;55322;48.146;11.516;2022-12-20T08:37:15;3.28;93.17
68378;DHT22;55322;48.146;11.516;2022-12-20T08:39:41;3.31;92.92
68378;DHT22;55322;48.146;11.516;2022-12-20T08:42:07;3.37;93.01
68378;DHT22;55322;48.146;11.516;2022-12-20T08:44:32;3.16;93.49
68378;DHT22;55322;48.146;11.516;2022-12-20T08:46:57;3.23;93.65
68378;DHT22;55322;48.146;11.516;2022-12-20T08:49:22;3.34;92.82
68378;DHT22;55322;48.146;11.516;2022-12-20T08:51:48;3.31;92.97
68378;DHT22;55322;48.146;11.516;2022-12-20T08:54:13;3.24;93.31
68378;DHT22;55322;48.146;11.516;2022-12-20T08:56:38;3.22;93.81
68378;DHT22;55322;48.146;11.516;2022-12-20T08:59:04;3.14;93.88
68378;DHT22;55322;48.146;11.516;2022-12-20T09:01:29;3.00;93.75
68378;DHT22;55322;48.146;11.516;2022-12-20T09:03:57;2.92;94.29
68378;DHT22;55322;48.146;11.516;2022-12-20T09:06:23;2.85;94.54
68378;DHT22;55322;48.146;11.516;2022-12-20T09:08:48;2.80;94.61
68378;DHT22;55322;48.146;11.516;2022-12-20T09:11:20;2.82;95.45
68378;DHT22;55322;48.146;11.516;2022-12-20T09:13:47;3.00;96.00
68378;DHT22;55322;48.146;11.516;2022-12-20T09:16:15;3.07;95.47
68378;DHT22;55322;48.146;11.516;2022-12-20T09:18:41;3.30;95.47
68378;DHT22;55322;48.146;11.516;2022-12-20T09:21:08;3.35;95.64
68378;DHT22;55322;48.146;11.516;2022-12-20T09:23:35;3.67;93.63
68378;DHT22;55322;48.146;11.516;2022-12-20T09:26:10;3.79;93.08
68378;DHT22;55322;48.146;11.516;2022-12-20T09:28:36;3.79;92.87
68378;DHT22;55322;48.146;11.516;2022-12-20T09:31:04;4.03;92.01
68378;DHT22;55322;48.146;11.516;2022-12-20T09:33:31;3.99;92.13
68378;DHT22;55322;48.146;11.516;2022-12-20T09:35:57;3.99;92.77
68378;DHT22;55322;48.146;11.516;2022-12-20T09:38:23;4.06;92.45
68378;DHT22;55322;48.146;11.516;2022-12-20T09:40:51;3.98;92.38
68378;DHT22;55322;48.146;11.516;2022-12-20T09:43:17;4.20;89.99
68378;DHT22;55322;48.146;11.516;2022-12-20T09:45:45;4.35;90.34
68378;DHT22;55322;48.146;11.516;2022-12-20T09:48:24;4.56;88.20
68378;DHT22;55322;48.146;11.516;2022-12-20T09:56:57;4.80;87.94
68378;DHT22;55322;48.146;11.516;2022-12-20T09:59:24;4.85;85.98
68378;DHT22;55322;48.146;11.516;2022-12-20T10:01:49;4.88;87.07
68378;DHT22;55322;48.146;11.516;2022-12-20T10:04:21;4.97;86.84
68378;DHT22;55322;48.146;11.516;2022-12-20T10:12:14;4.97;86.53
68378;DHT22;55322;48.146;11.516;2022-12-20T10:20:23;5.45;84.84
68378;DHT22;55322;48.146;11.516;2022-12-20T10:22:57;5.34;85.89
68378;DHT22;55322;48.146;11.516;2022-12-20T10:25:32;5.25;86.62
68378;DHT22;55322;48.146;11.516;2022-12-20T10:28:02;4.98;87.26
68378;DHT22;55322;48.146;11.516;2022-12-20T10:30:28;5.07;87.73
68378;DHT22;55322;48.146;11.516;2022-12-20T10:32:56;4.94;89.09
68378;DHT22;55322;48.146;11.516;2022-12-20T10:35:32;4.84;89.00
68378;DHT22;55322;48.146;11.516;2022-12-20T10:38:03;4.77;89.50
68378;DHT22;55322;48.146;11.516;2022-12-20T10:43:04;4.80;89.43
68378;DHT22;55322;48.146;11.516;2022-12-20T10:45:38;4.85;89.24
68378;DHT22;55322;48.146;11.516;2022-12-20T10:50:59;5.01;90.15
68378;DHT22;55322;48.146;11.516;2022-12-20T10:53:25;5.24;88.68
68378;DHT22;55322;48.146;11.516;2022-12-20T10:55:52;5.45;87.33
68378;DHT22;55322;48.146;11.516;2022-12-20T11:01:15;5.48;87.31
68378;DHT22;55322;48.146;11.516;2022-12-20T11:03:53;5.21;88.96
68378;DHT22;55322;48.146;11.516;2022-12-20T11:06:20;5.38;88.24
68378;DHT22;55322;48.146;11.516;2022-12-20T11:08:46;5.35;87.66
68378;DHT22;55322;48.146;11.516;2022-12-20T11:11:14;5.55;87.88
68378;DHT22;55322;48.146;11.516;2022-12-20T11:13:41;5.45;87.45
68378;DHT22;55322;48.146;11.516;2022-12-20T11:16:25;5.39;87.27
68378;DHT22;55322;48.146;11.516;2022-12-20T11:21:44;5.44;88.96
68378;DHT22;55322;48.146;11.516;2022-12-20T11:24:55;5.54;87.56
68378;DHT22;55322;48.146;11.516;2022-12-20T11:30:07;5.62;88.45
68378;DHT22;55322;48.146;11.516;2022-12-20T11:32:56;6.00;86.47
68378;DHT22;55322;48.146;11.516;2022-12-20T11:35:32;6.43;83.13
68378;DHT22;55322;48.146;11.516;2022-12-20T11:40:58;6.84;81.22
68378;DHT22;55322;48.146;11.516;2022-12-20T11:54:22;7.25;79.70
68378;DHT22;55322;48.146;11.516;2022-12-20T11:56:51;7.45;79.26
68378;DHT22;55322;48.146;11.516;2022-12-20T11:59:44;6.94;81.86
68378;DHT22;55322;48.146;11.516;2022-12-20T12:02:15;6.74;82.62
68378;DHT22;55322;48.146;11.516;2022-12-20T12:04:52;6.24;83.93
68378;DHT22;55322;48.146;11.516;2022-12-20T12:07:24;6.17;86.08
68378;DHT22;55322;48.146;11.516;2022-12-20T12:10:15;6.22;86.56
68378;DHT22;55322;48.146;11.516;2022-12-20T12:12:43;6.26;86.50
68378;DHT22;55322;48.146;11.516;2022-12-20T12:17:51;6.00;87.75
68378;DHT22;55322;48.146;11.516;2022-12-20T12:22:53;6.16;85.80
68378;DHT22;55322;48.146;11.516;2022-12-20T12:25:20;6.26;84.09
68378;DHT22;55322;48.146;11.516;2022-12-20T12:27:45;6.33;84.33
68378;DHT22;55322;48.146;11.516;2022-12-20T12:30:13;6.27;84.62
68378;DHT22;55322;48.146;11.516;2022-12-20T12:32:45;6.07;83.86
68378;DHT22;55322;48.146;11.516;2022-12-20T12:38:02;6.38;84.37
68378;DHT22;55322;48.146;11.516;2022-12-20T12:46:00;6.68;83.61
68378;DHT22;55322;48.146;11.516;2022-12-20T12:51:02;6.58;84.92
68378;DHT22;55322;48.146;11.516;2022-12-20T12:53:48;6.60;84.80
68378;DHT22;55322;48.146;11.516;2022-12-20T12:59:23;6.68;86.56
68378;DHT22;55322;48.146;11.516;2022-12-20T13:05:29;6.57;84.89
68378;DHT22;55322;48.146;11.516;2022-12-20T13:07:46;6.45;85.14
68378;DHT22;55322;48.146;11.516;2022-12-20T13:12:55;6.09;86.07
68378;DHT22;55322;48.146;11.516;2022-12-20T13:20:21;5.82;86.69
68378;DHT22;55322;48.146;11.516;2022-12-20T13:25:47;5.37;87.81
68378;DHT22;55322;48.146;11.516;2022-12-20T13:30:41;4.97;89.41
68378;DHT22;55322;48.146;11.516;2022-12-20T13:33:19;4.95;91.79
68378;DHT22;55322;48.146;11.516;2022-12-20T13:36:02;4.93;90.11
68378;DHT22;55322;48.146;11.516;2022-12-20T13:43:48;4.36;90.50
68378;DHT22;55322;48.146;11.516;2022-12-20T13:46:21;4.16;90.53
68378;DHT22;55322;48.146;11.516;2022-12-20T13:51:24;3.68;92.60
68378;DHT22;55322;48.146;11.516;2022-12-20T13:53:59;3.68;94.69
68378;DHT22;55322;48.146;11.516;2022-12-20T13:58:54;3.70;94.65
68378;DHT22;55322;48.146;11.516;2022-12-20T14:01:22;3.68;93.99
68378;DHT22;55322;48.146;11.516;2022-12-20T14:03:49;3.61;94.22
68378;DHT22;55322;48.146;11.516;2022-12-20T14:06:18;3.73;93.27
68378;DHT22;55322;48.146;11.516;2022-12-20T14:08:47;3.74;93.32
68378;DHT22;55322;48.146;11.516;2022-12-20T14:11:14;3.60;93.37
68378;DHT22;55322;48.146;11.516;2022-12-20T14:13:40;3.84;94.01
68378;DHT22;55322;48.146;11.516;2022-12-20T14:16:16;4.10;93.77
68378;DHT22;55322;48.146;11.516;2022-12-20T14:18:47;4.10;93.00
68378;DHT22;55322;48.146;11.516;2022-12-20T14:21:12;4.06;92.47
68378;DHT22;55322;48.146;11.516;2022-12-20T14:23:40;3.77;92.71
68378;DHT22;55322;48.146;11.516;2022-12-20T14:26:14;3.82;92.74
68378;DHT22;55322;48.146;11.516;2022-12-20T14:28:45;3.68;93.31
68378;DHT22;55322;48.146;11.516;2022-12-20T14:36:41;3.77;94.86
68378;DHT22;55322;48.146;11.516;2022-12-20T14:39:28;3.68;93.66
68378;DHT22;55322;48.146;11.516;2022-12-20T14:42:15;3.54;93.23
68378;DHT22;55322;48.146;11.516;2022-12-20T14:44:43;3.35;94.39
68378;DHT22;55322;48.146;11.516;2022-12-20T14:47:24;3.10;93.80
68378;DHT22;55322;48.146;11.516;2022-12-20T14:49:57;3.04;93.53
68378;DHT22;55322;48.146;11.516;2022-12-20T14:52:44;2.96;94.81
68378;DHT22;55322;48.146;11.516;2022-12-20T14:57:43;2.75;95.09
68378;DHT22;55322;48.146;11.516;2022-12-20T15:07:50;2.63;95.76
68378;DHT22;55322;48.146;11.516;2022-12-20T15:10:16;2.49;96.05
68378;DHT22;55322;48.146;11.516;2022-12-20T15:12:41;2.53;96.59
68378;DHT22;55322;48.146;11.516;2022-12-20T15:15:12;2.55;96.50
68378;DHT22;55322;48.146;11.516;2022-12-20T15:17:38;2.59;96.48
68378;DHT22;55322;48.146;11.516;2022-12-20T15:20:03;2.62;97.12
68378;DHT22;55322;48.146;11.516;2022-12-20T15:22:29;2.66;97.32
68378;DHT22;55322;48.146;11.516;2022-12-20T15:24:54;2.72;97.82
68378;DHT22;55322;48.146;11.516;2022-12-20T15:27:19;2.86;97.51
68378;DHT22;55322;48.146;11.516;2022-12-20T15:29:45;2.92;97.84
68378;DHT22;55322;48.146;11.516;2022-12-20T15:32:16;2.82;97.24
68378;DHT22;55322;48.146;11.516;2022-12-20T15:34:47;2.68;97.14
68378;DHT22;55322;48.146;11.516;2022-12-20T15:37:13;2.68;97.23
68378;DHT22;55322;48.146;11.516;2022-12-20T15:39:39;2.55;96.72
68378;DHT22;55322;48.146;11.516;2022-12-20T15:42:05;2.48;96.75
68378;DHT22;55322;48.146;11.516;2022-12-20T15:44:32;2.44;96.90
68378;DHT22;55322;48.146;11.516;2022-12-20T15:46:57;2.45;97.50
68378;DHT22;55322;48.146;11.516;2022-12-20T15:49:29;2.62;97.91
68378;DHT22;55322;48.146;11.516;2022-12-20T15:51:55;2.62;97.40
68378;DHT22;55322;48.146;11.516;2022-12-20T15:54:25;2.60;97.50
68378;DHT22;55322;48.146;11.516;2022-12-20T15:56:55;2.60;97.90
68378;DHT22;55322;48.146;11.516;2022-12-20T15:59:21;2.48;97.60
68378;DHT22;55322;48.146;11.516;2022-12-20T16:01:47;2.49;98.13
68378;DHT22;55322;48.146;11.516;2022-12-20T16:04:19;2.35;97.67
68378;DHT22;55322;48.146;11.516;2022-12-20T16:06:46;2.34;97.42
68378;DHT22;55322;48.146;11.516;2022-12-20T16:09:13;2.24;97.13
68378;DHT22;55322;48.146;11.516;2022-12-20T16:11:38;2.24;97.10
68378;DHT22;55322;48.146;11.516;2022-12-20T16:14:04;2.15;97.97
68378;DHT22;55322;48.146;11.516;2022-12-20T16:16:35;2.22;97.98
68378;DHT22;55322;48.146;11.516;2022-12-20T16:19:01;2.15;97.34
68378;DHT22;55322;48.146;11.516;2022-12-20T16:21:33;2.14;97.84
68378;DHT22;55322;48.146;11.516;2022-12-20T16:23:58;2.15;98.33
68378;DHT22;55322;48.146;11.516;2022-12-20T16:26:25;2.13;97.73
68378;DHT22;55322;48.146;11.516;2022-12-20T16:28:51;2.07;97.61
68378;DHT22;55322;48.146;11.516;2022-12-20T16:31:28;2.00;98.36
68378;DHT22;55322;48.146;11.516;2022-12-20T16:33:55;2.01;98.92
68378;DHT22;55322;48.146;11.516;2022-12-20T16:36:23;2.05;98.66
68378;DHT22;55322;48.146;11.516;2022-12-20T16:38:49;2.08;99.06
68378;DHT22;55322;48.146;11.516;2022-12-20T16:41:17;2.04;98.21
68378;DHT22;55322;48.146;11.516;2022-12-20T16:43:43;2.01;98.37
68378;DHT22;55322;48.146;11.516;2022-12-20T16:46:13;1.97;98.10
68378;DHT22;55322;48.146;11.516;2022-12-20T16:48:39;1.97;98.46
68378;DHT22;55322;48.146;11.516;2022-12-20T16:51:21;1.91;98.95
68378;DHT22;55322;48.146;11.516;2022-12-20T16:53:49;2.01;99.52
68378;DHT22;55322;48.146;11.516;2022-12-20T16:56:14;1.97;99.02
68378;DHT22;55322;48.146;11.516;2022-12-20T16:58:39;1.93;98.55
68378;DHT22;55322;48.146;11.516;2022-12-20T17:01:05;1.90;98.73
68378;DHT22;55322;48.146;11.516;2022-12-20T17:03:30;1.93;98.58
68378;DHT22;55322;48.146;11.516;2022-12-20T17:05:55;1.93;98.37
68378;DHT22;55322;48.146;11.516;2022-12-20T17:08:21;1.91;98.55
68378;DHT22;55322;48.146;11.516;2022-12-20T17:10:47;1.90;99.21
68378;DHT22;55322;48.146;11.516;2022-12-20T17:13:12;1.95;99.10
68378;DHT22;55322;48.146;11.516;2022-12-20T17:15:38;1.94;98.82
68378;DHT22;55322;48.146;11.516;2022-12-20T17:18:04;1.91;98.86
68378;DHT22;55322;48.146;11.516;2022-12-20T17:20:30;1.88;98.57
68378;DHT22;55322;48.146;11.516;2022-12-20T17:22:55;1.88;98.47
68378;DHT22;55322;48.146;11.516;2022-12-20T17:25:27;1.88;99.49
68378;DHT22;55322;48.146;11.516;2022-12-20T17:27:53;2.00;99.99
68378;DHT22;55322;48.146;11.516;2022-12-20T17:30:19;2.27;99.99
68378;DHT22;55322;48.146;11.516;2022-12-20T17:32:45;2.31;99.95
68378;DHT22;55322;48.146;11.516;2022-12-20T17:37:48;2.13;98.97
68378;DHT22;55322;48.146;11.516;2022-12-20T17:40:15;2.11;98.83
68378;DHT22;55322;48.146;11.516;2022-12-20T17:42:41;2.01;98.58